Time;durP1;ratioP1;P1;durP2;ratioP2;P2;SDS_P1;SDS_P2;PMS_P1;PMS_P2;Temp;Humidity;BMP_temperature;BMP_pressure;BME280_temperature;BME280_humidity;BME280_pressure;Samples;Min_cycle;Max_cycle;Signal;HPM_P1;HPM_P2
2022/08/27 00:01:59;;;;;;;12.27;4.10;;;;;;;-148.56;100.00;61375.16;4997056;28;20512;-57
2022/08/27 00:05:23;;;;;;;5.45;4.05;;;;;;;-148.56;100.00;61375.16;4983936;28;20117;-56
2022/08/27 00:08:47;;;;;;;5.47;4.10;;;;;;;-148.56;100.00;61375.16;4987363;28;20064;-56
2022/08/27 00:12:11;;;;;;;4.63;3.55;;;;;;;-148.56;100.00;61375.16;4993001;28;20042;-56
2022/08/27 00:15:35;;;;;;;6.20;3.30;;;;;;;-148.56;100.00;61375.16;4981043;28;20037;-53
2022/08/27 00:18:59;;;;;;;7.45;3.67;;;;;;;-148.56;100.00;61375.16;4997592;28;20025;-53
2022/08/27 00:22:23;;;;;;;6.50;3.40;;;;;;;-148.56;100.00;61375.16;4996325;28;20829;-56
2022/08/27 00:25:47;;;;;;;5.70;3.90;;;;;;;-148.56;100.00;61375.16;4986733;28;20033;-56
2022/08/27 00:29:11;;;;;;;4.07;3.67;;;;;;;-148.56;100.00;61375.16;5000940;28;20033;-54
2022/08/27 00:32:34;;;;;;;5.13;3.78;;;;;;;-148.56;100.00;61375.16;4981823;28;20385;-55
2022/08/27 00:35:58;;;;;;;4.95;3.80;;;;;;;-148.56;100.00;61375.16;4996991;28;20061;-54
2022/08/27 00:39:22;;;;;;;6.05;3.65;;;;;;;-148.56;100.00;61375.16;4996257;28;20033;-54
2022/08/27 00:42:46;;;;;;;4.00;3.47;;;;;;;-148.56;100.00;61375.16;4979090;28;22329;-54
2022/08/27 00:46:24;;;;;;;4.82;3.65;;;;;;;-148.56;100.00;61375.16;4987404;28;20100;-52
2022/08/27 00:49:55;;;;;;;4.72;3.80;;;;;;;-148.56;100.00;61375.16;4974568;28;20091;-56
2022/08/27 00:53:23;;;;;;;5.03;4.05;;;;;;;-148.56;100.00;61375.16;5001387;28;20025;-56
2022/08/27 00:56:52;;;;;;;4.75;4.00;;;;;;;-148.56;100.00;61375.16;4968073;28;20033;-55
2022/08/27 01:00:17;;;;;;;4.65;3.60;;;;;;;-148.56;100.00;61375.16;4974605;28;20504;-54
2022/08/27 01:03:42;;;;;;;5.90;3.88;;;;;;;-148.56;100.00;61375.16;4978988;28;20037;-51
2022/08/27 01:07:08;;;;;;;5.45;4.00;;;;;;;-148.56;100.00;61375.16;4975974;28;20121;-56
2022/08/27 01:10:32;;;;;;;4.53;4.00;;;;;;;-148.56;100.00;61375.16;4980650;28;20026;-55
2022/08/27 01:13:56;;;;;;;5.70;4.28;;;;;;;-148.56;100.00;61375.16;4982912;28;20033;-54
2022/08/27 01:17:21;;;;;;;6.30;4.13;;;;;;;-148.56;100.00;61375.16;4990974;28;20030;-53
2022/08/27 01:20:55;;;;;;;5.45;4.40;;;;;;;-148.56;100.00;61375.16;4979868;28;20044;-54
2022/08/27 01:24:31;;;;;;;4.80;4.30;;;;;;;-148.56;100.00;61375.16;4983743;28;21340;-54
2022/08/27 01:27:56;;;;;;;5.80;4.53;;;;;;;-148.56;100.00;61375.16;4977548;28;20040;-55
2022/08/27 01:31:20;;;;;;;5.82;4.28;;;;;;;-148.56;100.00;61375.16;4974412;28;20032;-56
2022/08/27 01:34:54;;;;;;;5.85;4.28;;;;;;;-148.56;100.00;61375.16;4995812;28;20037;-52
2022/08/27 01:38:18;;;;;;;4.88;3.80;;;;;;;-148.56;100.00;61375.16;4977946;28;20957;-55
2022/08/27 01:41:42;;;;;;;4.82;3.90;;;;;;;-148.56;100.00;61375.16;4998084;28;20057;-53
2022/08/27 01:45:06;;;;;;;5.10;4.10;;;;;;;-148.56;100.00;61375.16;4993100;28;21904;-55
2022/08/27 01:48:30;;;;;;;6.00;4.28;;;;;;;-148.56;100.00;61375.16;4993330;28;20396;-54
2022/08/27 01:51:54;;;;;;;8.75;4.40;;;;;;;-148.56;100.00;61375.16;4997448;28;20096;-54
2022/08/27 01:55:19;;;;;;;5.75;4.60;;;;;;;-148.56;100.00;61375.16;4987212;28;20037;-54
2022/08/27 01:58:43;;;;;;;6.57;4.53;;;;;;;-148.56;100.00;61375.16;4995725;28;20053;-56
2022/08/27 02:02:09;;;;;;;4.70;4.20;;;;;;;-148.56;100.00;61375.16;4998037;28;20029;-55
2022/08/27 02:05:33;;;;;;;4.60;4.00;;;;;;;-148.56;100.00;61375.16;4965689;28;21350;-55
2022/08/27 02:08:57;;;;;;;7.75;4.78;;;;;;;-148.56;100.00;61375.16;4990590;28;20037;-56
2022/08/27 02:12:20;;;;;;;6.28;5.05;;;;;;;-148.56;100.00;61375.16;4986569;28;20057;-54
2022/08/27 02:15:44;;;;;;;6.60;4.90;;;;;;;-148.56;100.00;61375.16;4999169;28;20550;-54
2022/08/27 02:19:08;;;;;;;8.15;5.57;;;;;;;-148.56;100.00;61375.16;4998236;28;20033;-55
2022/08/27 02:22:32;;;;;;;6.40;5.35;;;;;;;-148.56;100.00;61375.16;4999213;28;20069;-57
2022/08/27 02:25:56;;;;;;;8.10;5.05;;;;;;;-148.56;100.00;61375.16;4988830;28;20142;-56
2022/08/27 02:29:20;;;;;;;8.15;4.10;;;;;;;-148.56;100.00;61375.16;5003755;28;20029;-55
2022/08/27 02:32:46;;;;;;;5.05;3.80;;;;;;;-148.56;100.00;61375.16;4998056;28;20037;-55
2022/08/27 02:36:10;;;;;;;5.25;3.58;;;;;;;-148.56;100.00;61375.16;4991243;28;20590;-57
2022/08/27 02:39:34;;;;;;;4.88;3.75;;;;;;;-148.56;100.00;61375.16;5003165;28;20100;-55
2022/08/27 02:42:58;;;;;;;4.55;3.75;;;;;;;-148.56;100.00;61375.16;4995354;28;22008;-56
2022/08/27 02:46:22;;;;;;;4.45;4.03;;;;;;;-148.56;100.00;61375.16;5000764;28;20116;-55
2022/08/27 02:49:45;;;;;;;6.35;4.00;;;;;;;-148.56;100.00;61375.16;5009630;28;20440;-54
2022/08/27 02:53:09;;;;;;;5.75;4.20;;;;;;;-148.56;100.00;61375.16;5003351;28;20057;-54
2022/08/27 02:56:34;;;;;;;7.15;4.57;;;;;;;-148.56;100.00;61375.16;4980819;28;20037;-55
2022/08/27 02:59:58;;;;;;;6.85;4.57;;;;;;;-148.56;100.00;61375.16;5004926;28;20666;-53
2022/08/27 03:03:21;;;;;;;5.68;4.47;;;;;;;-148.56;100.00;61375.16;4967103;28;20100;-55
2022/08/27 03:06:46;;;;;;;6.82;4.88;;;;;;;-148.56;100.00;61375.16;5005481;28;20041;-55
2022/08/27 03:10:10;;;;;;;4.93;4.43;;;;;;;-148.56;100.00;61375.16;5000873;28;20049;-56
2022/08/27 03:13:35;;;;;;;5.50;4.88;;;;;;;-148.56;100.00;61375.16;4986035;28;20029;-53
2022/08/27 03:18:16;;;;;;;6.63;4.65;;;;;;;-148.56;100.00;61375.16;5001322;28;20030;-55
2022/08/27 03:20:44;;;;;;;5.55;5.03;;;;;;;-148.56;100.00;61375.16;5004099;28;20029;-51
2022/08/27 03:24:08;;;;;;;6.82;5.63;;;;;;;-148.56;100.00;61375.16;4986801;28;20157;-54
2022/08/27 03:27:32;;;;;;;7.57;5.43;;;;;;;-148.56;100.00;61375.16;5005332;28;20030;-54
2022/08/27 03:31:00;;;;;;;6.78;5.97;;;;;;;-148.56;100.00;61375.16;5002476;28;20029;-55
2022/08/27 03:34:24;;;;;;;6.70;6.00;;;;;;;-148.56;100.00;61375.16;5003168;28;20033;-52
2022/08/27 03:37:48;;;;;;;7.20;5.95;;;;;;;-148.56;100.00;61375.16;4986207;28;20025;-57
2022/08/27 03:41:12;;;;;;;8.13;7.32;;;;;;;-148.56;100.00;61375.16;5002800;28;20022;-53
2022/08/27 03:44:36;;;;;;;8.23;7.13;;;;;;;-148.56;100.00;61375.16;4991481;28;20026;-54
2022/08/27 03:48:00;;;;;;;9.57;7.68;;;;;;;-148.56;100.00;61375.16;5003875;28;20467;-53
2022/08/27 03:51:24;;;;;;;9.52;8.18;;;;;;;-148.56;100.00;61375.16;4997620;28;20555;-55
2022/08/27 03:54:48;;;;;;;9.77;8.15;;;;;;;-148.56;100.00;61375.16;5000309;28;20406;-55
2022/08/27 03:58:12;;;;;;;10.13;8.40;;;;;;;-148.56;100.00;61375.16;5004858;28;20036;-55
2022/08/27 04:01:37;;;;;;;11.13;9.93;;;;;;;-148.56;100.00;61375.16;5003931;28;20071;-55
2022/08/27 04:05:01;;;;;;;14.65;11.90;;;;;;;-148.56;100.00;61375.16;5000505;28;20038;-56
2022/08/27 04:08:25;;;;;;;13.98;11.88;;;;;;;-148.56;100.00;61375.16;5001316;28;20030;-55
2022/08/27 04:11:49;;;;;;;16.45;13.30;;;;;;;-148.56;100.00;61375.16;4995814;28;20095;-54
2022/08/27 04:15:13;;;;;;;14.43;12.48;;;;;;;-148.56;100.00;61375.16;5002120;28;20075;-57
2022/08/27 04:18:37;;;;;;;14.65;12.88;;;;;;;-148.56;100.00;61375.16;5003044;28;20037;-53
2022/08/27 04:22:07;;;;;;;14.35;12.75;;;;;;;-148.56;100.00;61375.16;5001987;28;20497;-51
2022/08/27 04:25:31;;;;;;;16.65;13.48;;;;;;;-148.56;100.00;61375.16;4996118;28;20507;-54
2022/08/27 04:28:56;;;;;;;16.13;13.07;;;;;;;-148.56;100.00;61375.16;5001544;28;20034;-55
2022/08/27 04:32:20;;;;;;;14.50;12.13;;;;;;;-148.56;100.00;61375.16;4983284;28;20040;-56
2022/08/27 04:35:43;;;;;;;15.52;13.13;;;;;;;-148.56;100.00;61375.16;4994136;28;20833;-55
2022/08/27 04:39:07;;;;;;;16.92;13.73;;;;;;;-148.56;100.00;61375.16;5001224;28;20114;-55
2022/08/27 04:42:31;;;;;;;15.73;13.25;;;;;;;-148.56;100.00;61375.16;5001904;28;20492;-56
2022/08/27 04:45:55;;;;;;;16.58;13.73;;;;;;;-148.56;100.00;61375.16;4986671;28;20132;-55
2022/08/27 04:49:19;;;;;;;19.10;14.60;;;;;;;-148.56;100.00;61375.16;4990156;28;20032;-54
2022/08/27 04:52:43;;;;;;;16.63;13.50;;;;;;;-148.56;100.00;61375.16;5002373;28;20022;-55
2022/08/27 04:56:07;;;;;;;17.20;13.35;;;;;;;-148.56;100.00;61375.16;5001812;28;20057;-54
2022/08/27 04:59:31;;;;;;;16.02;13.90;;;;;;;-148.56;100.00;61375.16;4982411;28;20846;-53
2022/08/27 05:02:55;;;;;;;16.20;13.75;;;;;;;-148.56;100.00;61375.16;5002537;28;20037;-53
2022/08/27 05:06:20;;;;;;;17.55;13.70;;;;;;;-148.56;100.00;61375.16;4990110;28;20168;-56
2022/08/27 05:09:45;;;;;;;15.70;12.75;;;;;;;-148.56;100.00;61375.16;4998142;28;20045;-56
2022/08/27 05:13:09;;;;;;;15.13;13.52;;;;;;;-148.56;100.00;61375.16;4997777;28;20156;-51
2022/08/27 05:16:35;;;;;;;16.30;13.68;;;;;;;-148.56;100.00;61375.16;4994221;28;20600;-54
2022/08/27 05:19:59;;;;;;;18.50;14.07;;;;;;;-148.56;100.00;61375.16;5003851;28;20040;-55
2022/08/27 05:23:23;;;;;;;15.32;13.73;;;;;;;-148.56;100.00;61375.16;4982516;28;20033;-54
2022/08/27 05:26:47;;;;;;;17.48;13.18;;;;;;;-148.56;100.00;61375.16;4992012;28;20044;-54
2022/08/27 05:30:11;;;;;;;14.95;12.68;;;;;;;-148.56;100.00;61375.16;4992844;28;20925;-55
2022/08/27 05:33:37;;;;;;;18.10;12.80;;;;;;;-148.56;100.00;61375.16;5001522;28;20056;-55
2022/08/27 05:37:01;;;;;;;15.40;13.00;;;;;;;-148.56;100.00;61375.16;5002037;28;20148;-53
2022/08/27 05:40:25;;;;;;;15.18;13.55;;;;;;;-148.56;100.00;61375.16;4996656;28;20101;-53
2022/08/27 05:43:48;;;;;;;16.63;12.95;;;;;;;-148.56;100.00;61375.16;5000351;28;20043;-54
2022/08/27 05:47:13;;;;;;;14.82;12.70;;;;;;;-148.56;100.00;61375.16;4998906;28;21041;-52
2022/08/27 05:50:37;;;;;;;15.57;13.30;;;;;;;-148.56;100.00;61375.16;5002274;28;20025;-58
2022/08/27 05:54:05;;;;;;;14.45;12.63;;;;;;;-148.56;100.00;61375.16;5009894;28;20041;-54
2022/08/27 05:57:30;;;;;;;13.88;11.60;;;;;;;-148.56;100.00;61375.16;5006308;28;20033;-54
2022/08/27 06:01:03;;;;;;;16.20;12.52;;;;;;;-148.56;100.00;61375.16;5006607;28;20169;-54
2022/08/27 06:04:27;;;;;;;15.30;13.05;;;;;;;-148.56;100.00;61375.16;5002078;28;20029;-52
2022/08/27 06:07:51;;;;;;;13.75;12.27;;;;;;;-148.56;100.00;61375.16;5000136;28;20057;-55
2022/08/27 06:11:15;;;;;;;16.25;12.38;;;;;;;-148.56;100.00;61375.16;5005496;28;20033;-54
2022/08/27 06:14:39;;;;;;;16.08;12.65;;;;;;;-148.56;100.00;61375.16;4967806;28;21029;-57
2022/08/27 06:18:04;;;;;;;13.23;11.60;;;;;;;-148.56;100.00;61375.16;5003716;28;20049;-55
2022/08/27 06:21:27;;;;;;;16.80;12.45;;;;;;;-148.56;100.00;61375.16;5005200;28;20033;-54
2022/08/27 06:24:51;;;;;;;14.65;11.63;;;;;;;-148.56;100.00;61375.16;5001019;28;20098;-54
2022/08/27 06:28:15;;;;;;;13.15;11.23;;;;;;;-148.56;100.00;61375.16;4987351;28;20040;-56
2022/08/27 06:31:40;;;;;;;13.77;11.27;;;;;;;-148.56;100.00;61375.16;4997878;28;20034;-53
2022/08/27 06:35:05;;;;;;;14.07;11.00;;;;;;;-148.56;100.00;61375.16;4993171;28;20575;-51
2022/08/27 06:38:29;;;;;;;13.45;10.52;;;;;;;-148.56;100.00;61375.16;4995777;28;20057;-56
2022/08/27 06:41:52;;;;;;;16.05;11.00;;;;;;;-148.56;100.00;61375.16;5000410;28;20060;-55
2022/08/27 06:45:16;;;;;;;23.13;14.30;;;;;;;-148.56;100.00;61375.16;5002682;28;20040;-56
2022/08/27 06:48:43;;;;;;;22.27;16.65;;;;;;;-148.56;100.00;61375.16;5003000;28;20040;-55
2022/08/27 06:52:08;;;;;;;18.90;16.20;;;;;;;-148.56;100.00;61375.16;4998309;28;20041;-55
2022/08/27 06:55:32;;;;;;;20.98;15.20;;;;;;;-148.56;100.00;61375.16;4985813;28;20108;-53
2022/08/27 06:58:57;;;;;;;18.63;15.65;;;;;;;-148.56;100.00;61375.16;5002164;28;20133;-59
2022/08/27 07:02:22;;;;;;;17.10;14.63;;;;;;;-148.56;100.00;61375.16;5000126;28;20033;-53
2022/08/27 07:05:46;;;;;;;17.85;15.50;;;;;;;-148.56;100.00;61375.16;4998640;28;20041;-53
2022/08/27 07:09:10;;;;;;;18.00;14.73;;;;;;;-148.56;100.00;61375.16;4994611;28;20096;-55
2022/08/27 07:12:34;;;;;;;12.02;10.52;;;;;;;-148.56;100.00;61375.16;4996035;28;20029;-56
2022/08/27 07:15:58;;;;;;;13.18;10.65;;;;;;;-148.56;100.00;61375.16;5000196;28;20117;-52
2022/08/27 07:19:22;;;;;;;14.27;11.00;;;;;;;-148.56;100.00;61375.16;4979718;28;20556;-54
2022/08/27 07:22:46;;;;;;;13.90;10.95;;;;;;;-148.56;100.00;61375.16;4997947;28;20116;-55
2022/08/27 07:26:11;;;;;;;16.15;10.80;;;;;;;-148.56;100.00;61375.16;4997698;28;20389;-52
2022/08/27 07:29:35;;;;;;;15.63;11.48;;;;;;;-148.56;100.00;61375.16;4999044;28;20428;-54
2022/08/27 07:32:59;;;;;;;17.80;10.45;;;;;;;-148.56;100.00;61375.16;4999677;28;20105;-55
2022/08/27 07:36:23;;;;;;;14.55;10.55;;;;;;;-148.56;100.00;61375.16;4999684;28;20041;-54
2022/08/27 07:39:47;;;;;;;12.13;10.35;;;;;;;-148.56;100.00;61375.16;4994627;28;20037;-56
2022/08/27 07:46:54;;;;;;;14.90;11.45;;;;;;;-148.56;100.00;61375.16;4997476;28;20052;-55
2022/08/27 07:50:19;;;;;;;14.82;12.15;;;;;;;-148.56;100.00;61375.16;4995509;28;20037;-52
2022/08/27 07:53:44;;;;;;;19.30;11.80;;;;;;;-148.56;100.00;61375.16;4989878;28;20120;-55
2022/08/27 07:57:08;;;;;;;19.83;11.60;;;;;;;-148.56;100.00;61375.16;4967760;28;20030;-53
2022/08/27 08:00:32;;;;;;;15.43;11.50;;;;;;;-148.56;100.00;61375.16;4993575;28;20038;-54
2022/08/27 08:03:56;;;;;;;15.57;11.48;;;;;;;-148.56;100.00;61375.16;4997283;28;20037;-55
2022/08/27 08:07:20;;;;;;;16.90;10.52;;;;;;;-148.56;100.00;61375.16;4985105;28;20583;-55
2022/08/27 08:10:44;;;;;;;17.10;10.02;;;;;;;-148.56;100.00;61375.16;4968974;28;20079;-54
2022/08/27 08:14:08;;;;;;;15.70;10.32;;;;;;;-148.56;100.00;61375.16;4986014;28;20036;-54
2022/08/27 08:17:33;;;;;;;17.48;12.63;;;;;;;-148.56;100.00;61375.16;4996079;28;20111;-53
2022/08/27 08:21:00;;;;;;;16.73;11.75;;;;;;;-148.56;100.00;61375.16;4999149;28;20079;-52
2022/08/27 08:24:24;;;;;;;17.77;11.88;;;;;;;-148.56;100.00;61375.16;5003292;28;20037;-56
2022/08/27 08:27:48;;;;;;;16.95;12.38;;;;;;;-148.56;100.00;61375.16;4991764;28;20422;-55
2022/08/27 08:31:12;;;;;;;17.05;12.20;;;;;;;-148.56;100.00;61375.16;4995599;28;20029;-55
2022/08/27 08:34:36;;;;;;;21.95;12.32;;;;;;;-148.56;100.00;61375.16;4995964;28;20068;-56
2022/08/27 08:38:00;;;;;;;21.80;11.52;;;;;;;-148.56;100.00;61375.16;4996401;28;20034;-56
2022/08/27 08:41:31;;;;;;;16.60;11.68;;;;;;;-148.56;100.00;61375.16;4995744;28;20029;-54
2022/08/27 08:44:56;;;;;;;18.35;12.88;;;;;;;-148.56;100.00;61375.16;5002496;28;20508;-55
2022/08/27 08:48:28;;;;;;;19.90;13.57;;;;;;;-148.56;100.00;61375.16;4995178;28;20103;-56
2022/08/27 08:52:33;;;;;;;24.45;16.67;;;;;;;-148.56;100.00;61375.16;4989906;28;20057;-52
2022/08/27 08:56:10;;;;;;;25.75;18.17;;;;;;;-148.56;100.00;61375.16;4994983;28;20026;-54
2022/08/27 08:59:55;;;;;;;28.33;19.70;;;;;;;-148.56;100.00;61375.16;4987082;28;20036;-54
2022/08/27 09:03:18;;;;;;;29.33;19.88;;;;;;;-148.56;100.00;61375.16;4984466;28;20037;-55
2022/08/27 09:06:59;;;;;;;22.52;15.20;;;;;;;-148.56;100.00;61375.16;4997863;28;20112;-57
2022/08/27 09:10:26;;;;;;;22.88;15.98;;;;;;;-148.56;100.00;61375.16;4971978;28;20850;-54
2022/08/27 09:13:52;;;;;;;20.02;13.90;;;;;;;-148.56;100.00;61375.16;4950084;28;20639;-54
2022/08/27 09:17:16;;;;;;;20.83;14.65;;;;;;;-148.56;100.00;61375.16;4981796;28;20021;-55
2022/08/27 09:20:39;;;;;;;18.13;13.73;;;;;;;-148.56;100.00;61375.16;4990462;28;20116;-54
2022/08/27 09:24:15;;;;;;;20.15;12.00;;;;;;;-148.56;100.00;61375.16;4969588;28;20025;-54
2022/08/27 09:27:40;;;;;;;22.58;14.23;;;;;;;-148.56;100.00;61375.16;4996444;28;20034;-53
2022/08/27 09:31:10;;;;;;;21.77;13.27;;;;;;;-148.56;100.00;61375.16;4993517;28;20145;-53
2022/08/27 09:34:36;;;;;;;26.92;12.02;;;;;;;-148.56;100.00;61375.16;5000865;28;20029;-53
2022/08/27 09:38:26;;;;;;;13.68;8.88;;;;;;;-148.56;100.00;61375.16;4998627;28;20117;-54
2022/08/27 09:41:50;;;;;;;14.13;8.27;;;;;;;-148.56;100.00;61375.16;4982805;28;20026;-55
2022/08/27 09:45:16;;;;;;;12.05;8.18;;;;;;;-148.56;100.00;61375.16;4981878;28;20033;-54
2022/08/27 09:48:47;;;;;;;10.85;8.07;;;;;;;-148.56;100.00;61375.16;5000220;28;20041;-56
2022/08/27 09:52:32;;;;;;;10.55;7.82;;;;;;;-148.56;100.00;61375.16;4994317;28;20164;-54
2022/08/27 09:56:03;;;;;;;14.10;8.18;;;;;;;-148.56;100.00;61375.16;4995543;28;20179;-55
2022/08/27 09:59:32;;;;;;;14.30;7.90;;;;;;;-148.56;100.00;61375.16;4989626;28;20029;-53
2022/08/27 10:03:01;;;;;;;10.95;7.57;;;;;;;-148.56;100.00;61375.16;4983668;28;20041;-55
2022/08/27 10:06:26;;;;;;;19.25;8.20;;;;;;;-148.56;100.00;61375.16;5007490;28;20072;-56
2022/08/27 10:09:56;;;;;;;10.18;7.53;;;;;;;-148.56;100.00;61375.16;5007907;28;20137;-55
2022/08/27 10:13:43;;;;;;;12.32;7.80;;;;;;;-148.56;100.00;61375.16;4984905;28;20144;-54
2022/08/27 10:17:19;;;;;;;11.93;7.38;;;;;;;-148.56;100.00;61375.16;5000269;28;20150;-53
2022/08/27 10:20:51;;;;;;;11.50;6.80;;;;;;;-148.56;100.00;61375.16;5005439;28;20030;-55
2022/08/27 10:25:03;;;;;;;10.23;7.05;;;;;;;-148.56;100.00;61375.16;5002697;28;20510;-56
2022/08/27 10:29:08;;;;;;;9.02;6.57;;;;;;;-148.56;100.00;61375.16;4980794;28;20077;-56
2022/08/27 10:32:54;;;;;;;9.52;6.88;;;;;;;-148.56;100.00;61375.16;4946600;28;20042;-55
2022/08/27 10:36:30;;;;;;;8.73;6.30;;;;;;;-148.56;100.00;61375.16;4989131;28;20121;-56
2022/08/27 10:40:10;;;;;;;7.10;5.82;;;;;;;-148.56;100.00;61375.16;4987992;28;20026;-56
2022/08/27 10:43:56;;;;;;;8.02;6.55;;;;;;;-148.56;100.00;61375.16;4990121;28;20037;-57
2022/08/27 10:47:40;;;;;;;9.25;6.35;;;;;;;-148.56;100.00;61375.16;4992481;28;20709;-56
2022/08/27 10:51:10;;;;;;;7.95;6.22;;;;;;;-148.56;100.00;61375.16;4983800;28;20044;-56
2022/08/27 10:54:43;;;;;;;8.35;6.30;;;;;;;-148.56;100.00;61375.16;5004949;28;20030;-54
2022/08/27 10:58:21;;;;;;;8.05;5.65;;;;;;;-148.56;100.00;61375.16;5005002;28;20029;-54
2022/08/27 11:02:04;;;;;;;7.82;5.50;;;;;;;-148.56;100.00;61375.16;4990177;28;20110;-54
2022/08/27 11:05:30;;;;;;;;;;;;;;;-148.56;100.00;61375.16;5008669;28;20030;-54
2022/08/27 11:08:56;;;;;;;6.95;5.57;;;;;;;-148.56;100.00;61375.16;5004747;28;19924;-54
2022/08/27 11:12:44;;;;;;;7.25;5.47;;;;;;;-148.56;100.00;61375.16;5008649;28;20044;-57
2022/08/27 11:16:15;;;;;;;7.10;5.20;;;;;;;-148.56;100.00;61375.16;4993380;28;20179;-52
2022/08/27 11:19:55;;;;;;;7.53;5.35;;;;;;;-148.56;100.00;61375.16;5002812;28;20099;-53
2022/08/27 11:23:26;;;;;;;7.25;5.18;;;;;;;-148.56;100.00;61375.16;5007044;28;20099;-52
2022/08/27 11:26:56;;;;;;;5.65;4.97;;;;;;;-148.56;100.00;61375.16;4985523;28;20123;-54
2022/08/27 11:30:44;;;;;;;6.32;5.50;;;;;;;-148.56;100.00;61375.16;4990768;28;20048;-55
2022/08/27 11:34:40;;;;;;;7.85;5.07;;;;;;;-148.56;100.00;61375.16;4990151;28;20045;-57
2022/08/27 11:38:29;;;;;;;5.93;4.95;;;;;;;-148.56;100.00;61375.16;4996660;28;20534;-56
2022/08/27 11:42:24;;;;;;;5.82;5.10;;;;;;;-148.56;100.00;61375.16;4999902;28;20021;-55
2022/08/27 11:45:53;;;;;;;5.82;4.82;;;;;;;-148.56;100.00;61375.16;5007515;28;20029;-57
2022/08/27 11:49:24;;;;;;;5.45;4.53;;;;;;;-148.56;100.00;61375.16;5000094;28;20079;-57
2022/08/27 11:53:07;;;;;;;5.85;4.65;;;;;;;-148.56;100.00;61375.16;5002024;28;20362;-57
2022/08/27 11:56:38;;;;;;;9.70;5.03;;;;;;;-148.56;100.00;61375.16;5004336;28;20029;-57
2022/08/27 12:00:16;;;;;;;5.50;4.68;;;;;;;-148.56;100.00;61375.16;5002912;28;20034;-54
2022/08/27 12:03:42;;;;;;;5.07;4.25;;;;;;;-148.56;100.00;61375.16;4986535;28;20356;-55
2022/08/27 12:07:13;;;;;;;6.93;4.10;;;;;;;-148.56;100.00;61375.16;4993200;28;20060;-57
2022/08/27 12:10:46;;;;;;;9.10;7.05;;;;;;;-148.56;100.00;61375.16;5001881;28;20222;-56
2022/08/27 12:14:28;;;;;;;10.73;6.30;;;;;;;-148.56;100.00;61375.16;4986814;28;20170;-57
2022/08/27 12:17:57;;;;;;;9.18;6.70;;;;;;;-148.56;100.00;61375.16;4997514;28;20032;-56
2022/08/27 12:21:45;;;;;;;10.70;6.60;;;;;;;-148.56;100.00;61375.16;4999010;28;22338;-57
2022/08/27 12:25:11;;;;;;;9.48;6.93;;;;;;;-148.56;100.00;61375.16;4996584;28;20037;-56
2022/08/27 12:28:35;;;;;;;9.25;6.95;;;;;;;-148.56;100.00;61375.16;4982340;28;20033;-56
2022/08/27 12:32:18;;;;;;;12.00;7.30;;;;;;;-148.56;100.00;61375.16;4989920;28;20053;-55
